createdAt,value
2018-08-09T00:00:04.302Z,101251.15
2018-08-09T00:02:32.821Z,101254.09
2018-08-09T00:05:02.179Z,101250.70
2018-08-09T00:07:30.674Z,101250.80
2018-08-09T00:09:59.423Z,101248.33
2018-08-09T00:12:27.958Z,101246.87
2018-08-09T00:14:56.544Z,101245.69
2018-08-09T00:17:25.164Z,101246.39
2018-08-09T00:19:53.838Z,101250.99
2018-08-09T00:22:22.420Z,101246.72
2018-08-09T00:24:50.918Z,101249.36
2018-08-09T00:27:19.705Z,101252.63
2018-08-09T00:29:48.355Z,101244.05
2018-08-09T00:32:17.392Z,101240.22
2018-08-09T00:34:46.364Z,101240.02
2018-08-09T00:37:14.917Z,101237.51
2018-08-09T00:39:43.852Z,101234.41
2018-08-09T00:42:12.483Z,101239.34
2018-08-09T00:44:41.100Z,101238.47
2018-08-09T00:47:09.761Z,101250.67
2018-08-09T00:49:39.103Z,101248.03
2018-08-09T00:52:07.692Z,101249.05
2018-08-09T00:54:36.313Z,101248.62
2018-08-09T00:57:04.856Z,101248.84
2018-08-09T00:59:33.413Z,101246.59
2018-08-09T01:02:01.952Z,101251.58
2018-08-09T01:04:30.486Z,101253.31
2018-08-09T01:06:59.173Z,101249.97
2018-08-09T01:09:27.717Z,101253.38
2018-08-09T01:11:56.241Z,101245.67
2018-08-09T01:14:24.763Z,101240.69
2018-08-09T01:16:53.304Z,101248.08
2018-08-09T01:19:22.200Z,101240.72
2018-08-09T01:21:50.739Z,101237.04
2018-08-09T01:24:19.249Z,101240.78
2018-08-09T01:26:47.873Z,101241.19
2018-08-09T01:29:16.557Z,101239.11
2018-08-09T01:31:45.236Z,101225.05
2018-08-09T01:34:13.756Z,101232.41
2018-08-09T01:36:42.404Z,101222.62
2018-08-09T01:39:13.602Z,101222.00
2018-08-09T01:41:53.490Z,101223.13
2018-08-09T01:44:22.166Z,101215.74
2018-08-09T01:46:50.688Z,101217.96
2018-08-09T01:49:19.240Z,101215.91
2018-08-09T01:51:47.806Z,101220.45
2018-08-09T01:54:16.334Z,101213.60
2018-08-09T01:56:44.845Z,101220.16
2018-08-09T01:59:13.389Z,101228.31
2018-08-09T02:01:42.000Z,101224.22
2018-08-09T02:04:10.831Z,101214.61
2018-08-09T02:06:39.363Z,101219.91
2018-08-09T02:09:12.329Z,101222.52
2018-08-09T02:11:40.948Z,101219.23
2018-08-09T02:14:09.463Z,101218.49
2018-08-09T02:16:38.016Z,101209.83
2018-08-09T02:19:06.666Z,101209.02
2018-08-09T02:21:35.270Z,101210.83
2018-08-09T02:24:03.814Z,101215.42
2018-08-09T02:26:32.348Z,101222.50
2018-08-09T02:29:01.171Z,101222.97
2018-08-09T02:31:29.730Z,101222.34
2018-08-09T02:33:58.237Z,101215.41
2018-08-09T02:36:26.753Z,101213.52
2018-08-09T02:38:55.400Z,101204.77
2018-08-09T02:41:24.183Z,101201.61
2018-08-09T02:43:52.787Z,101207.86
2018-08-09T02:46:21.410Z,101201.98
2018-08-09T02:48:50.008Z,101205.97
2018-08-09T02:51:18.685Z,101201.88
2018-08-09T02:53:47.254Z,101194.27
2018-08-09T02:56:15.870Z,101195.59
2018-08-09T02:58:44.805Z,101190.00
2018-08-09T03:01:13.400Z,101195.64
2018-08-09T03:03:42.085Z,101190.02
2018-08-09T03:06:10.840Z,101197.58
2018-08-09T03:08:39.664Z,101188.16
2018-08-09T03:11:08.481Z,101190.17
2018-08-09T03:13:37.021Z,101193.72
2018-08-09T03:16:05.572Z,101190.47
2018-08-09T03:18:34.126Z,101199.67
2018-08-09T03:21:02.729Z,101192.73
2018-08-09T03:23:31.412Z,101192.47
2018-08-09T03:25:59.935Z,101191.03
2018-08-09T03:28:28.544Z,101182.25
2018-08-09T03:30:57.075Z,101181.88
2018-08-09T03:33:25.949Z,101181.42
2018-08-09T03:35:54.488Z,101183.81
2018-08-09T03:38:23.077Z,101187.81
2018-08-09T03:40:51.787Z,101175.44
2018-08-09T03:43:20.286Z,101170.68
2018-08-09T03:45:48.926Z,101167.12
2018-08-09T03:48:17.471Z,101176.21
2018-08-09T03:50:46.058Z,101182.98
2018-08-09T03:53:14.675Z,101188.20
2018-08-09T03:55:43.297Z,101190.28
2018-08-09T03:58:11.902Z,101193.92
2018-08-09T04:00:40.463Z,101195.73
2018-08-09T04:03:09.036Z,101199.51
2018-08-09T04:05:37.571Z,101197.13
2018-08-09T04:08:06.175Z,101194.02
2018-08-09T04:10:34.717Z,101197.02
2018-08-09T04:13:03.272Z,101187.59
2018-08-09T04:15:31.894Z,101191.33
2018-08-09T04:18:00.517Z,101190.63
2018-08-09T04:20:29.085Z,101179.84
2018-08-09T04:22:57.621Z,101191.41
2018-08-09T04:25:26.189Z,101183.92
2018-08-09T04:27:54.701Z,101184.80
2018-08-09T04:30:23.237Z,101188.08
2018-08-09T04:32:51.757Z,101189.86
2018-08-09T04:35:20.343Z,101191.80
2018-08-09T04:37:49.179Z,101208.59
2018-08-09T04:40:24.249Z,101213.33
2018-08-09T04:42:52.785Z,101206.02
2018-08-09T04:45:21.512Z,101209.58
2018-08-09T04:47:50.060Z,101209.88
2018-08-09T04:50:18.605Z,101214.62
2018-08-09T04:52:47.137Z,101214.91
2018-08-09T04:55:15.738Z,101218.05
2018-08-09T04:57:44.247Z,101222.48
2018-08-09T05:00:12.978Z,101225.88
2018-08-09T05:02:41.559Z,101229.51
2018-08-09T05:05:10.267Z,101225.30
2018-08-09T05:07:38.815Z,101219.94
2018-08-09T05:10:09.411Z,101223.23
2018-08-09T05:12:39.201Z,101214.66
2018-08-09T05:15:07.762Z,101211.81
2018-08-09T05:17:36.468Z,101219.03
2018-08-09T05:20:06.247Z,101208.09
2018-08-09T05:22:34.945Z,101203.70
2018-08-09T05:25:03.438Z,101203.91
2018-08-09T05:27:31.953Z,101210.81
2018-08-09T05:30:00.655Z,101202.23
2018-08-09T05:32:29.416Z,101198.53
2018-08-09T05:34:57.936Z,101200.34
2018-08-09T05:37:26.451Z,101204.12
2018-08-09T05:39:55.002Z,101202.94
2018-08-09T05:42:23.663Z,101204.02
2018-08-09T05:44:52.250Z,101204.34
2018-08-09T05:47:20.845Z,101206.02
2018-08-09T05:49:49.388Z,101196.48
2018-08-09T05:52:17.968Z,101186.34
2018-08-09T05:54:46.556Z,101183.36
2018-08-09T05:57:15.084Z,101185.08
2018-08-09T05:59:43.638Z,101184.84
2018-08-09T06:02:12.215Z,101176.66
2018-08-09T06:04:41.170Z,101172.02
2018-08-09T06:07:09.786Z,101168.45
2018-08-09T06:09:38.533Z,101163.25
2018-08-09T06:12:07.345Z,101150.94
2018-08-09T06:14:35.865Z,101159.19
2018-08-09T06:17:04.447Z,101144.66
2018-08-09T06:19:32.991Z,101148.25
2018-08-09T06:22:01.648Z,101157.31
2018-08-09T06:26:57.797Z,101154.57
2018-08-09T06:29:26.363Z,101158.93
2018-08-09T06:31:54.992Z,101157.27
2018-08-09T06:34:23.542Z,101160.28
2018-08-09T06:36:52.240Z,101164.05
2018-08-09T06:39:20.981Z,101149.70
2018-08-09T06:41:49.525Z,101156.50
2018-08-09T06:44:18.074Z,101157.30
2018-08-09T06:46:46.905Z,101155.84
2018-08-09T06:49:15.439Z,101151.41
2018-08-09T06:51:43.933Z,101148.51
2018-08-09T06:54:12.493Z,101147.20
2018-08-09T06:56:41.028Z,101140.09
2018-08-09T06:59:09.982Z,101135.41
2018-08-09T07:01:38.641Z,101131.17
2018-08-09T07:04:07.222Z,101125.50
2018-08-09T07:06:35.744Z,101127.37
2018-08-09T07:09:06.723Z,101119.13
2018-08-09T07:11:35.263Z,101111.87
2018-08-09T07:14:03.895Z,101111.63
2018-08-09T07:16:32.536Z,101111.94
2018-08-09T07:19:01.195Z,101117.69
2018-08-09T07:21:29.731Z,101123.16
2018-08-09T07:23:58.329Z,101110.38
2018-08-09T07:26:26.908Z,101107.98
2018-08-09T07:28:55.521Z,101107.08
2018-08-09T07:31:24.078Z,101096.83
2018-08-09T07:33:52.960Z,101105.78
2018-08-09T07:36:21.473Z,101103.16
2018-08-09T07:38:50.131Z,101107.48
2018-08-09T07:41:18.872Z,101110.06
2018-08-09T07:43:47.509Z,101109.69
2018-08-09T07:46:16.067Z,101107.16
2018-08-09T07:48:44.830Z,101109.01
2018-08-09T07:51:13.328Z,101113.41
2018-08-09T07:53:42.260Z,101113.59
2018-08-09T07:56:10.820Z,101120.14
2018-08-09T07:58:39.370Z,101114.05
2018-08-09T08:01:07.896Z,101110.50
2018-08-09T08:03:36.448Z,101116.41
2018-08-09T08:06:05.205Z,101117.49
2018-08-09T08:08:33.713Z,101109.50
2018-08-09T08:11:04.298Z,101107.05
2018-08-09T08:13:33.802Z,101093.11
2018-08-09T08:16:02.570Z,101094.37
2018-08-09T08:18:31.302Z,101099.34
2018-08-09T08:20:59.879Z,101089.94
2018-08-09T08:23:28.502Z,101079.70
2018-08-09T08:25:57.069Z,101078.51
2018-08-09T08:28:25.581Z,101076.05
2018-08-09T08:30:54.238Z,101068.22
2018-08-09T08:33:22.788Z,101070.94
2018-08-09T08:35:51.326Z,101069.48
2018-08-09T08:38:20.429Z,101056.78
2018-08-09T08:40:48.980Z,101054.77
2018-08-09T08:43:17.589Z,101045.77
2018-08-09T08:45:46.149Z,101045.94
2018-08-09T08:48:14.754Z,101040.54
2018-08-09T08:50:43.272Z,101022.15
2018-08-09T08:53:11.916Z,101013.42
2018-08-09T08:55:40.468Z,101013.95
2018-08-09T08:58:09.083Z,101005.72
2018-08-09T09:00:37.676Z,100997.25
2018-08-09T09:03:06.243Z,100984.84
2018-08-09T09:05:34.783Z,100968.86
2018-08-09T09:08:04.331Z,100950.86
2018-08-09T09:10:33.015Z,100944.70
2018-08-09T09:13:01.582Z,100949.60
2018-08-09T09:15:30.176Z,100954.11
2018-08-09T09:17:58.795Z,100961.88
2018-08-09T09:20:27.432Z,100967.20
2018-08-09T09:22:55.968Z,100969.87
2018-08-09T09:25:24.498Z,100967.30
2018-08-09T09:27:53.018Z,100965.98
2018-08-09T09:30:21.621Z,100950.39
2018-08-09T09:32:50.168Z,100938.30
2018-08-09T09:35:18.730Z,100928.48
2018-08-09T09:37:47.300Z,100928.05
2018-08-09T09:40:15.858Z,100926.81
2018-08-09T09:42:44.392Z,100926.56
2018-08-09T09:45:13.025Z,100927.44
2018-08-09T09:47:41.548Z,100925.17
2018-08-09T09:50:11.337Z,100926.08
2018-08-09T09:52:39.891Z,100919.44
2018-08-09T09:55:08.413Z,100915.27
2018-08-09T09:57:37.255Z,100914.19
2018-08-09T10:00:07.118Z,100911.59
2018-08-09T10:02:35.609Z,100905.77
2018-08-09T10:05:04.178Z,100901.44
2018-08-09T10:07:33.015Z,100899.58
2018-08-09T10:10:01.636Z,100897.94
2018-08-09T10:12:30.176Z,100894.28
2018-08-09T10:14:58.994Z,100890.00
2018-08-09T10:17:27.630Z,100889.59
2018-08-09T10:19:56.166Z,100883.25
2018-08-09T10:22:24.781Z,100884.61
2018-08-09T10:24:53.509Z,100880.63
2018-08-09T10:27:22.018Z,100860.76
2018-08-09T10:29:50.651Z,100852.00
2018-08-09T10:32:19.239Z,100841.16
2018-08-09T10:34:47.977Z,100826.48
2018-08-09T10:37:16.619Z,100815.59
2018-08-09T10:39:45.130Z,100816.05
2018-08-09T10:42:13.821Z,100815.52
2018-08-09T10:44:42.324Z,100804.00
2018-08-09T10:47:10.854Z,100799.34
2018-08-09T10:49:40.306Z,100804.25
2018-08-09T10:52:08.862Z,100791.97
2018-08-09T10:54:37.449Z,100785.31
2018-08-09T10:57:06.413Z,100782.89
2018-08-09T10:59:35.180Z,100782.80
2018-08-09T11:02:03.872Z,100774.22
2018-08-09T11:04:32.408Z,100779.57
2018-08-09T11:07:00.904Z,100793.23
2018-08-09T11:09:29.438Z,100791.61
2018-08-09T11:11:57.952Z,100796.92
2018-08-09T11:14:26.472Z,100793.13
2018-08-09T11:16:55.029Z,100786.35
2018-08-09T11:19:23.649Z,100798.16
2018-08-09T11:21:52.244Z,100821.03
2018-08-09T11:24:21.855Z,100834.02
2018-08-09T11:26:50.471Z,100849.30
2018-08-09T11:29:18.986Z,100865.84
2018-08-09T11:31:47.534Z,100899.30
2018-08-09T11:34:16.144Z,100858.95
2018-08-09T11:36:44.864Z,100786.13
2018-08-09T11:39:13.681Z,100799.66
2018-08-09T11:41:42.175Z,100792.87
2018-08-09T11:44:11.556Z,100775.38
2018-08-09T11:46:40.079Z,100756.51
2018-08-09T11:49:08.558Z,100735.41
2018-08-09T11:51:37.242Z,100712.35
2018-08-09T11:54:06.566Z,100702.13
2018-08-09T11:56:35.288Z,100691.97
2018-08-09T11:59:03.818Z,100693.73
2018-08-09T12:01:32.984Z,100693.97
2018-08-09T12:04:01.579Z,100678.95
2018-08-09T12:06:30.177Z,100681.58
2018-08-09T12:08:58.826Z,100677.46
2018-08-09T12:11:27.413Z,100668.52
2018-08-09T12:13:56.134Z,100659.02
2018-08-09T12:16:24.741Z,100643.31
2018-08-09T12:18:53.651Z,100639.27
2018-08-09T12:21:22.244Z,100623.61
2018-08-09T12:23:50.877Z,100614.95
2018-08-09T12:26:19.402Z,100609.36
2018-08-09T12:28:48.200Z,100601.45
2018-08-09T12:31:16.735Z,100586.83
2018-08-09T12:33:45.320Z,100583.80
2018-08-09T12:36:13.881Z,100582.33
2018-08-09T12:38:42.657Z,100569.85
2018-08-09T12:41:11.198Z,100563.14
2018-08-09T12:43:39.847Z,100564.76
2018-08-09T12:46:08.550Z,100548.20
2018-08-09T12:48:37.428Z,100545.19
2018-08-09T12:51:05.995Z,100541.22
2018-08-09T12:53:38.545Z,100524.29
2018-08-09T12:56:07.115Z,100517.88
2018-08-09T12:58:35.794Z,100515.77
2018-08-09T13:01:04.436Z,100501.39
2018-08-09T13:03:32.970Z,100508.53
2018-08-09T13:06:01.861Z,100501.91
2018-08-09T13:08:34.524Z,100490.27
2018-08-09T13:11:03.185Z,100498.63
2018-08-09T13:13:31.769Z,100491.70
2018-08-09T13:16:00.292Z,100475.25
2018-08-09T13:18:28.963Z,100470.37
2018-08-09T13:20:57.625Z,100462.12
2018-08-09T13:23:26.339Z,100456.86
2018-08-09T13:25:54.938Z,100453.66
2018-08-09T13:28:23.468Z,100448.62
2018-08-09T13:30:52.030Z,100442.91
2018-08-09T13:33:20.911Z,100437.14
2018-08-09T13:35:49.497Z,100419.67
2018-08-09T13:38:18.191Z,100405.67
2018-08-09T13:40:47.819Z,100397.80
2018-08-09T13:43:16.426Z,100376.88
2018-08-09T13:45:44.970Z,100365.82
2018-08-09T13:48:13.653Z,100362.94
2018-08-09T13:50:42.177Z,100355.30
2018-08-09T13:53:10.772Z,100356.45
2018-08-09T13:55:39.374Z,100351.02
2018-08-09T13:58:07.944Z,100342.86
2018-08-09T14:00:36.585Z,100336.10
2018-08-09T14:03:05.129Z,100332.32
2018-08-09T14:05:33.738Z,100333.91
2018-08-09T14:08:02.426Z,100337.71
2018-08-09T14:10:31.112Z,100329.73
2018-08-09T14:12:59.882Z,100322.77
2018-08-09T14:15:28.447Z,100327.98
2018-08-09T14:17:57.099Z,100311.37
2018-08-09T14:20:25.864Z,100304.97
2018-08-09T14:22:54.649Z,100284.75
2018-08-09T14:25:23.359Z,100305.30
2018-08-09T14:27:52.171Z,100332.23
2018-08-09T14:30:21.056Z,100335.60
2018-08-09T14:32:49.723Z,100311.53
2018-08-09T14:35:18.295Z,100270.82
2018-08-09T14:37:47.545Z,100301.27
2018-08-09T14:40:16.926Z,100338.07
2018-08-09T14:42:45.457Z,100312.10
2018-08-09T14:45:15.653Z,100329.11
2018-08-09T14:47:44.260Z,100314.14
2018-08-09T14:50:12.868Z,100303.02
2018-08-09T14:52:41.358Z,100316.09
2018-08-09T14:55:11.573Z,100335.66
2018-08-09T14:57:40.473Z,100340.22
2018-08-09T15:00:15.226Z,100332.19
2018-08-09T15:02:44.525Z,100322.69
2018-08-09T15:05:13.269Z,100309.58
2018-08-09T15:07:42.488Z,100295.14
2018-08-09T15:10:11.338Z,100285.33
2018-08-09T15:12:40.269Z,100277.53
2018-08-09T15:15:10.529Z,100272.64
2018-08-09T15:17:39.263Z,100280.64
2018-08-09T15:20:10.800Z,100271.74
2018-08-09T15:22:39.786Z,100261.45
2018-08-09T15:25:09.593Z,100257.30
2018-08-09T15:27:38.196Z,100242.74
2018-08-09T15:30:15.837Z,100223.03
2018-08-09T15:32:44.577Z,100212.96
2018-08-09T15:35:13.599Z,100211.80
2018-08-09T15:37:42.294Z,100203.56
2018-08-09T15:40:12.215Z,100209.82
2018-08-09T15:42:40.865Z,100208.62
2018-08-09T15:45:12.326Z,100214.33
2018-08-09T15:47:41.551Z,100219.50
2018-08-09T15:50:17.633Z,100203.86
2018-08-09T15:52:46.441Z,100201.16
2018-08-09T15:55:16.600Z,100201.55
2018-08-09T15:57:45.538Z,100212.06
2018-08-09T16:00:17.647Z,100203.42
2018-08-09T16:02:46.477Z,100203.73
2018-08-09T16:05:15.143Z,100195.58
2018-08-09T16:07:43.724Z,100194.69
2018-08-09T16:10:14.057Z,100191.59
2018-08-09T16:12:42.649Z,100193.03
2018-08-09T16:15:13.242Z,100197.84
2018-08-09T16:17:42.033Z,100208.39
2018-08-09T16:20:11.672Z,100199.59
2018-08-09T16:22:40.624Z,100214.20
2018-08-09T16:25:12.051Z,100210.14
2018-08-09T16:27:40.751Z,100213.03
2018-08-09T16:30:17.459Z,100232.67
2018-08-09T16:32:46.276Z,100235.36
2018-08-09T16:35:15.355Z,100234.88
2018-08-09T16:37:45.126Z,100244.48
2018-08-09T16:40:21.479Z,100241.70
2018-08-09T16:42:50.086Z,100255.87
2018-08-09T16:45:19.856Z,100263.50
2018-08-09T16:47:49.235Z,100252.98
2018-08-09T16:50:24.232Z,100267.23
2018-08-09T16:52:53.103Z,100261.63
2018-08-09T16:55:23.059Z,100266.25
2018-08-09T16:57:51.804Z,100272.67
2018-08-09T17:00:23.612Z,100266.54
2018-08-09T17:02:53.584Z,100263.77
2018-08-09T17:05:24.489Z,100275.78
2018-08-09T17:07:53.313Z,100269.69
2018-08-09T17:10:23.469Z,100278.59
2018-08-09T17:12:52.347Z,100284.22
2018-08-09T17:15:23.383Z,100287.17
2018-08-09T17:17:52.735Z,100277.38
2018-08-09T17:20:23.914Z,100292.67
2018-08-09T17:22:52.702Z,100290.45
2018-08-09T17:25:21.585Z,100299.82
2018-08-09T17:27:50.799Z,100292.11
2018-08-09T17:30:22.138Z,100292.22
2018-08-09T17:32:50.729Z,100297.24
2018-08-09T17:35:19.576Z,100298.41
2018-08-09T17:37:48.188Z,100299.36
2018-08-09T17:40:20.763Z,100297.13
2018-08-09T17:42:50.427Z,100287.22
2018-08-09T17:45:20.335Z,100287.81
2018-08-09T17:47:48.969Z,100290.98
2018-08-09T17:50:17.637Z,100304.78
2018-08-09T17:52:46.306Z,100291.06
2018-08-09T17:55:15.887Z,100283.17
2018-08-09T17:57:45.258Z,100279.45
2018-08-09T18:00:17.417Z,100275.11
2018-08-09T18:02:45.944Z,100277.79
2018-08-09T18:05:14.559Z,100286.70
2018-08-09T18:07:43.161Z,100276.64
2018-08-09T18:10:16.018Z,100286.41
2018-08-09T18:12:44.693Z,100283.52
2018-08-09T18:15:13.396Z,100278.88
2018-08-09T18:17:41.986Z,100281.50
2018-08-09T18:20:12.712Z,100277.53
2018-08-09T18:22:41.693Z,100277.00
2018-08-09T18:25:11.828Z,100270.70
2018-08-09T18:27:40.490Z,100276.77
2018-08-09T18:30:15.968Z,100277.91
2018-08-09T18:32:44.983Z,100277.38
2018-08-09T18:35:15.040Z,100272.88
2018-08-09T18:37:43.816Z,100275.76
2018-08-09T18:40:16.948Z,100264.19
2018-08-09T18:42:45.644Z,100259.92
2018-08-09T18:45:14.602Z,100254.95
2018-08-09T18:47:43.284Z,100256.12
2018-08-09T18:50:14.801Z,100258.89
2018-08-09T18:52:43.545Z,100265.56
2018-08-09T18:55:13.387Z,100278.70
2018-08-09T18:57:41.967Z,100289.78
2018-08-09T19:00:18.550Z,100308.34
2018-08-09T19:02:47.817Z,100292.67
2018-08-09T19:05:16.524Z,100295.15
2018-08-09T19:07:45.337Z,100302.48
2018-08-09T19:10:16.103Z,100298.47
2018-08-09T19:12:44.877Z,100295.46
2018-08-09T19:15:13.716Z,100331.45
2018-08-09T19:17:42.824Z,100333.53
2018-08-09T19:20:18.077Z,100321.95
2018-08-09T19:22:47.258Z,100329.59
2018-08-09T19:25:16.192Z,100347.20
2018-08-09T19:27:44.956Z,100350.59
2018-08-09T19:30:15.511Z,100351.02
2018-08-09T19:32:44.434Z,100359.64
2018-08-09T19:35:14.636Z,100366.58
2018-08-09T19:37:43.561Z,100371.33
2018-08-09T19:40:14.012Z,100372.30
2018-08-09T19:42:42.939Z,100383.55
2018-08-09T19:45:14.126Z,100380.98
2018-08-09T19:47:42.948Z,100401.58
2018-08-09T19:50:13.566Z,100411.67
2018-08-09T19:52:42.824Z,100400.38
2018-08-09T19:55:12.942Z,100427.20
2018-08-09T19:57:42.938Z,100422.25
2018-08-09T20:00:13.640Z,100423.69
2018-08-09T20:02:42.609Z,100422.66
2018-08-09T20:05:11.740Z,100433.66
2018-08-09T20:07:40.576Z,100431.79
2018-08-09T20:10:10.571Z,100450.16
2018-08-09T20:12:39.768Z,100451.88
2018-08-09T20:15:11.019Z,100457.83
2018-08-09T20:17:39.800Z,100467.02
2018-08-09T20:20:09.094Z,100478.72
2018-08-09T20:22:37.657Z,100480.77
2018-08-09T20:25:07.708Z,100479.16
2018-08-09T20:27:36.285Z,100487.64
2018-08-09T20:30:07.652Z,100486.72
2018-08-09T20:32:36.175Z,100483.81
2018-08-09T20:35:07.089Z,100496.03
2018-08-09T20:37:35.698Z,100496.95
2018-08-09T20:40:05.372Z,100498.16
2018-08-09T20:42:34.147Z,100506.15
2018-08-09T20:45:02.673Z,100515.41
2018-08-09T20:47:31.235Z,100519.89
2018-08-09T20:50:00.063Z,100515.45
2018-08-09T20:52:28.630Z,100516.64
2018-08-09T20:54:57.194Z,100510.00
2018-08-09T20:57:25.931Z,100524.02
2018-08-09T20:59:54.485Z,100540.25
2018-08-09T21:02:23.062Z,100541.07
2018-08-09T21:04:51.628Z,100575.17
2018-08-09T21:07:20.275Z,100558.61
2018-08-09T21:09:48.861Z,100577.50
2018-08-09T21:12:18.818Z,100574.98
2018-08-09T21:14:47.393Z,100582.46
2018-08-09T21:17:16.118Z,100581.36
2018-08-09T21:19:44.633Z,100591.84
2018-08-09T21:22:13.332Z,100582.13
2018-08-09T21:24:41.859Z,100601.73
2018-08-09T21:27:10.377Z,100593.49
2018-08-09T21:29:38.956Z,100610.22
2018-08-09T21:32:14.355Z,100607.67
2018-08-09T21:34:42.864Z,100601.04
2018-08-09T21:37:11.418Z,100609.84
2018-08-09T21:39:40.103Z,100594.77
2018-08-09T21:42:08.745Z,100608.86
2018-08-09T21:44:37.305Z,100618.76
2018-08-09T21:47:05.964Z,100625.27
2018-08-09T21:49:34.539Z,100627.55
2018-08-09T21:52:03.093Z,100627.58
2018-08-09T21:54:31.724Z,100634.48
2018-08-09T21:57:00.281Z,100643.20
2018-08-09T21:59:28.831Z,100644.95
2018-08-09T22:01:57.430Z,100652.34
2018-08-09T22:04:25.987Z,100657.83
2018-08-09T22:06:59.686Z,100664.66
2018-08-09T22:09:33.588Z,100670.23
2018-08-09T22:12:07.660Z,100683.38
2018-08-09T22:14:41.352Z,100691.53
2018-08-09T22:17:15.089Z,100692.91
2018-08-09T22:19:48.847Z,100706.05
2018-08-09T22:22:22.127Z,100699.43
2018-08-09T22:24:50.863Z,100729.12
2018-08-09T22:27:19.909Z,100728.08
2018-08-09T22:29:48.413Z,100730.27
2018-08-09T22:32:17.016Z,100746.23
2018-08-09T22:34:45.671Z,100752.41
2018-08-09T22:37:14.189Z,100758.56
2018-08-09T22:39:43.088Z,100768.31
2018-08-09T22:42:11.619Z,100763.87
2018-08-09T22:44:40.184Z,100765.43
2018-08-09T22:47:08.782Z,100764.04
2018-08-09T22:49:37.394Z,100778.92
2018-08-09T22:52:06.123Z,100779.80
2018-08-09T22:54:34.702Z,100783.91
2018-08-09T22:57:03.324Z,100794.38
2018-08-09T22:59:31.899Z,100800.20
2018-08-09T23:02:00.466Z,100798.02
2018-08-09T23:04:29.043Z,100809.02
2018-08-09T23:06:58.017Z,100816.76
2018-08-09T23:09:26.614Z,100818.12
2018-08-09T23:11:55.266Z,100821.41
2018-08-09T23:14:23.937Z,100822.78
2018-08-09T23:16:52.535Z,100832.34
2018-08-09T23:19:21.094Z,100834.55
2018-08-09T23:21:49.656Z,100839.18
2018-08-09T23:24:18.275Z,100842.46
2018-08-09T23:26:47.041Z,100846.34
2018-08-09T23:29:15.599Z,100849.32
2018-08-09T23:31:44.129Z,100856.98
2018-08-09T23:34:12.689Z,100857.55
2018-08-09T23:36:41.197Z,100873.14
2018-08-09T23:39:12.296Z,100873.14
2018-08-09T23:41:40.985Z,100883.81
2018-08-09T23:44:09.517Z,100897.21
2018-08-09T23:46:38.017Z,100894.48
2018-08-09T23:49:06.688Z,100895.56
2018-08-09T23:51:35.215Z,100907.33
2018-08-09T23:54:03.956Z,100915.00
2018-08-09T23:56:32.476Z,100924.03
2018-08-09T23:59:00.965Z,100927.31
